Time;durP1;ratioP1;P1;durP2;ratioP2;P2;SDS_P1;SDS_P2;PMS_P1;PMS_P2;Temp;Humidity;BMP_temperature;BMP_pressure;BME280_temperature;BME280_humidity;BME280_pressure;Samples;Min_cycle;Max_cycle;Signal;HPM_P1;HPM_P2
2024/01/25 00:01:29;;;;;;;11.90;3.00;;;11.30;99.90;;;;;;5047189;28;20548;-84
2024/01/25 00:03:54;;;;;;;10.50;3.60;;;11.20;99.90;;;;;;5038543;28;20190;-84
2024/01/25 00:06:21;;;;;;;10.30;3.17;;;11.50;99.90;;;;;;5063203;28;20709;-85
2024/01/25 00:08:47;;;;;;;11.73;3.33;;;12.80;99.90;;;;;;5041961;28;20189;-84
2024/01/25 00:11:12;;;;;;;8.30;3.25;;;11.40;99.90;;;;;;5043439;28;20185;-85
2024/01/25 00:13:38;;;;;;;10.00;2.60;;;11.40;99.90;;;;;;5041797;28;20179;-85
2024/01/25 00:16:04;;;;;;;14.57;3.78;;;11.90;99.90;;;;;;5033767;28;20212;-84
2024/01/25 00:18:30;;;;;;;12.40;4.30;;;11.70;99.90;;;;;;5044607;28;20213;-84
2024/01/25 00:20:56;;;;;;;12.97;3.20;;;11.90;99.90;;;;;;5041368;28;20182;-86
2024/01/25 00:23:21;;;;;;;9.77;3.30;;;11.50;99.90;;;;;;5038337;28;20250;-85
2024/01/25 00:25:47;;;;;;;12.87;3.50;;;11.60;99.90;;;;;;5036855;28;20464;-83
2024/01/25 00:28:12;;;;;;;10.93;2.70;;;11.40;99.90;;;;;;5057250;28;20190;-84
2024/01/25 00:30:39;;;;;;;9.50;3.37;;;11.90;99.90;;;;;;5036145;28;20192;-84
2024/01/25 00:33:05;;;;;;;11.95;4.05;;;11.60;99.90;;;;;;5037729;28;20191;-84
2024/01/25 00:35:30;;;;;;;11.23;3.00;;;11.60;99.90;;;;;;5044452;28;20276;-84
2024/01/25 00:37:56;;;;;;;11.57;3.63;;;11.90;99.90;;;;;;5030138;28;20213;-83
2024/01/25 00:40:22;;;;;;;8.40;3.73;;;11.60;99.90;;;;;;5039713;28;20437;-84
2024/01/25 00:42:52;;;;;;;13.30;3.43;;;11.60;99.90;;;;;;5043798;28;20439;-83
2024/01/25 00:45:19;;;;;;;12.27;3.58;;;11.60;99.90;;;;;;5046469;28;20190;-84
2024/01/25 00:47:44;;;;;;;11.48;3.00;;;11.50;99.90;;;;;;5053625;28;20189;-83
2024/01/25 00:50:10;;;;;;;6.50;2.70;;;11.60;99.90;;;;;;5048781;28;20186;-84
2024/01/25 00:52:36;;;;;;;8.70;3.05;;;11.60;99.90;;;;;;5051903;28;20455;-83
2024/01/25 00:55:03;;;;;;;12.53;3.93;;;11.70;99.90;;;;;;5041008;28;20303;-83
2024/01/25 00:57:28;;;;;;;9.10;2.40;;;11.80;99.90;;;;;;5042199;28;20545;-83
2024/01/25 00:59:55;;;;;;;6.90;3.20;;;11.60;99.90;;;;;;5044689;28;20189;-84
2024/01/25 01:02:22;;;;;;;8.57;4.18;;;11.50;99.90;;;;;;5058485;28;20261;-84
2024/01/25 01:04:48;;;;;;;10.30;3.10;;;11.50;99.90;;;;;;5075183;28;20208;-84
2024/01/25 01:07:14;;;;;;;6.82;2.85;;;11.60;99.90;;;;;;5044592;28;20249;-85
2024/01/25 01:09:39;;;;;;;7.57;2.90;;;11.50;99.90;;;;;;5041105;28;20190;-85
2024/01/25 01:12:06;;;;;;;12.87;3.40;;;11.60;99.90;;;;;;5038992;28;20207;-83
2024/01/25 01:14:32;;;;;;;9.88;3.65;;;12.00;99.90;;;;;;5038179;28;20210;-85
2024/01/25 01:16:57;;;;;;;13.57;3.10;;;11.90;99.90;;;;;;5036558;28;20205;-84
2024/01/25 01:19:23;;;;;;;13.60;3.40;;;11.70;99.90;;;;;;5046610;28;20208;-85
2024/01/25 01:21:48;;;;;;;11.37;2.50;;;12.00;99.90;;;;;;5042144;28;20178;-84
2024/01/25 01:24:14;;;;;;;11.87;3.07;;;11.60;99.90;;;;;;5059505;28;20592;-85
2024/01/25 01:26:41;;;;;;;10.03;4.30;;;12.10;99.90;;;;;;5022823;28;20197;-83
2024/01/25 01:29:07;;;;;;;7.97;3.42;;;11.40;99.90;;;;;;5039249;28;20188;-85
2024/01/25 01:31:33;;;;;;;10.55;3.00;;;12.00;99.90;;;;;;5036732;28;20244;-85
2024/01/25 01:33:59;;;;;;;11.23;2.80;;;11.70;99.90;;;;;;5056620;28;20192;-85
2024/01/25 01:36:24;;;;;;;14.53;3.30;;;11.60;99.90;;;;;;5039135;28;20223;-84
2024/01/25 01:38:50;;;;;;;7.67;2.93;;;11.90;99.90;;;;;;5041400;28;20185;-86
2024/01/25 01:41:16;;;;;;;13.63;2.87;;;11.90;99.90;;;;;;5034962;28;20192;-85
2024/01/25 01:43:41;;;;;;;11.13;3.33;;;11.50;99.90;;;;;;5034566;28;20209;-85
2024/01/25 01:46:11;;;;;;;10.03;3.47;;;11.60;99.90;;;;;;5040151;28;20295;-85
2024/01/25 01:48:40;;;;;;;4.93;2.60;;;11.40;99.90;;;;;;5032691;28;20242;-85
2024/01/25 01:51:05;;;;;;;12.68;2.70;;;11.70;99.90;;;;;;5040127;28;20270;-85
2024/01/25 01:53:33;;;;;;;10.23;3.23;;;11.60;99.90;;;;;;5036107;28;20194;-85
2024/01/25 01:55:58;;;;;;;10.18;2.75;;;11.60;99.90;;;;;;5033793;28;20263;-85
2024/01/25 01:58:26;;;;;;;10.13;2.97;;;11.50;99.90;;;;;;5031680;28;20247;-85
2024/01/25 02:00:53;;;;;;;14.20;3.92;;;11.30;99.90;;;;;;5041584;28;20799;-85
2024/01/25 02:03:19;;;;;;;10.48;3.47;;;11.50;99.90;;;;;;5035004;28;20552;-85
2024/01/25 02:05:45;;;;;;;13.60;3.23;;;11.50;99.90;;;;;;5036631;28;20212;-85
2024/01/25 02:08:10;;;;;;;8.57;3.80;;;11.20;99.90;;;;;;5034546;28;20206;-85
2024/01/25 02:10:36;;;;;;;10.90;3.40;;;11.60;99.90;;;;;;5027272;28;20186;-85
2024/01/25 02:13:01;;;;;;;11.30;2.37;;;11.40;99.90;;;;;;5031480;28;20338;-83
2024/01/25 02:15:27;;;;;;;8.40;2.53;;;11.50;99.90;;;;;;5055489;28;20185;-83
2024/01/25 02:17:52;;;;;;;12.20;3.23;;;11.70;99.90;;;;;;5036914;28;20216;-83
2024/01/25 02:20:18;;;;;;;8.53;4.00;;;11.90;99.90;;;;;;5038415;28;20174;-83
2024/01/25 02:22:44;;;;;;;11.68;3.25;;;11.40;99.90;;;;;;5033916;28;20231;-83
2024/01/25 02:25:10;;;;;;;13.43;2.90;;;11.90;99.90;;;;;;5024688;28;20228;-83
2024/01/25 02:27:38;;;;;;;8.73;3.00;;;11.80;99.90;;;;;;5045001;28;20193;-83
2024/01/25 02:30:07;;;;;;;10.40;3.60;;;11.40;99.90;;;;;;5046706;28;20240;-84
2024/01/25 02:32:33;;;;;;;9.18;3.13;;;11.40;99.90;;;;;;5048303;28;20209;-84
2024/01/25 02:34:59;;;;;;;8.02;2.15;;;11.20;99.90;;;;;;5031417;28;20230;-83
2024/01/25 02:37:24;;;;;;;10.60;3.20;;;11.10;99.90;;;;;;5034114;28;20249;-84
2024/01/25 02:39:52;;;;;;;10.83;2.70;;;11.20;99.90;;;;;;5035965;28;20649;-84
2024/01/25 02:42:17;;;;;;;11.05;3.30;;;10.70;99.90;;;;;;5032803;28;20202;-83
2024/01/25 02:44:43;;;;;;;8.00;2.97;;;11.70;99.90;;;;;;5026572;28;20202;-84
2024/01/25 02:47:09;;;;;;;7.67;3.13;;;11.20;99.90;;;;;;5037402;28;20445;-84
2024/01/25 02:49:35;;;;;;;6.23;2.67;;;11.80;99.90;;;;;;5057901;28;20280;-84
2024/01/25 02:52:00;;;;;;;8.17;2.20;;;11.40;99.90;;;;;;5039364;28;20578;-84
2024/01/25 02:54:26;;;;;;;13.60;3.37;;;11.30;99.90;;;;;;5034175;28;20289;-84
2024/01/25 02:56:51;;;;;;;7.37;2.53;;;11.80;99.90;;;;;;5028735;28;20209;-83
2024/01/25 02:59:17;;;;;;;7.77;2.63;;;11.50;99.90;;;;;;5056655;28;20467;-84
2024/01/25 03:01:44;;;;;;;5.83;2.23;;;11.40;99.90;;;;;;5042074;28;20273;-84
2024/01/25 03:04:10;;;;;;;7.13;2.88;;;11.30;99.90;;;;;;5041595;28;20199;-84
2024/01/25 03:06:36;;;;;;;8.57;2.83;;;11.90;99.90;;;;;;5042446;28;20224;-84
2024/01/25 03:09:04;;;;;;;6.43;2.30;;;11.60;99.90;;;;;;5042929;28;20196;-83
2024/01/25 03:11:30;;;;;;;8.10;2.30;;;11.10;99.90;;;;;;5042298;28;20255;-83
2024/01/25 03:13:56;;;;;;;12.27;2.90;;;11.70;99.90;;;;;;5041980;28;20195;-84
2024/01/25 03:16:21;;;;;;;13.30;2.95;;;11.70;99.90;;;;;;5050060;28;20559;-83
2024/01/25 03:18:47;;;;;;;8.03;2.67;;;11.30;99.90;;;;;;5053123;28;20199;-83
2024/01/25 03:21:12;;;;;;;7.80;2.53;;;11.30;99.90;;;;;;5050854;28;20660;-83
2024/01/25 03:23:38;;;;;;;7.27;3.20;;;10.70;99.90;;;;;;5040496;28;20197;-84
2024/01/25 03:26:04;;;;;;;5.13;2.70;;;11.30;99.90;;;;;;5046086;28;20219;-84
2024/01/25 03:28:29;;;;;;;12.80;3.43;;;11.50;99.90;;;;;;5043924;28;20498;-84
2024/01/25 03:30:55;;;;;;;11.10;2.90;;;11.50;99.90;;;;;;5047425;28;20243;-83
2024/01/25 03:33:20;;;;;;;7.97;2.67;;;11.50;99.90;;;;;;5048391;28;20165;-84
2024/01/25 03:35:46;;;;;;;13.63;3.10;;;11.40;99.90;;;;;;5052177;28;20208;-84
2024/01/25 03:38:13;;;;;;;10.00;3.13;;;11.60;99.90;;;;;;5053725;28;20233;-83
2024/01/25 03:40:39;;;;;;;9.48;2.90;;;11.50;99.90;;;;;;5038012;28;20392;-83
2024/01/25 03:43:05;;;;;;;8.30;3.17;;;11.10;99.90;;;;;;5060654;28;20196;-83
2024/01/25 03:45:32;;;;;;;11.20;3.30;;;11.70;99.90;;;;;;5044200;28;20209;-83
2024/01/25 03:47:59;;;;;;;6.68;2.80;;;11.50;99.90;;;;;;5040200;28;20178;-83
2024/01/25 03:50:24;;;;;;;7.03;2.97;;;10.60;99.90;;;;;;5035057;28;20185;-83
2024/01/25 03:52:50;;;;;;;10.47;2.57;;;11.40;99.90;;;;;;5035371;28;20265;-84
2024/01/25 03:55:15;;;;;;;9.00;3.27;;;11.20;99.90;;;;;;5048148;28;20201;-84
2024/01/25 03:57:42;;;;;;;7.53;2.40;;;11.20;99.90;;;;;;5050058;28;20220;-84
2024/01/25 04:00:08;;;;;;;9.40;2.75;;;11.50;99.90;;;;;;5048736;28;20724;-84
2024/01/25 04:02:34;;;;;;;8.88;3.13;;;11.30;99.90;;;;;;5042230;28;20178;-84
2024/01/25 04:05:00;;;;;;;10.70;3.80;;;11.40;99.90;;;;;;5033970;28;20701;-84
2024/01/25 04:07:25;;;;;;;13.40;3.47;;;11.80;99.90;;;;;;5046453;28;20208;-83
2024/01/25 04:09:51;;;;;;;11.93;3.00;;;11.60;99.90;;;;;;5041047;28;20184;-84
2024/01/25 04:12:16;;;;;;;8.70;2.83;;;11.40;99.90;;;;;;5024987;28;20769;-84
2024/01/25 04:14:42;;;;;;;7.57;2.77;;;11.20;99.90;;;;;;5039190;28;20232;-84
2024/01/25 04:17:07;;;;;;;6.07;3.20;;;11.30;99.90;;;;;;5041405;28;20216;-84
2024/01/25 04:19:33;;;;;;;7.67;3.20;;;11.90;99.90;;;;;;5033905;28;20188;-85
2024/01/25 04:21:58;;;;;;;8.33;2.53;;;11.50;99.90;;;;;;5037765;28;20440;-84
2024/01/25 04:24:24;;;;;;;12.40;3.93;;;11.40;99.90;;;;;;5036241;28;20208;-85
2024/01/25 04:26:49;;;;;;;9.60;3.13;;;11.50;99.90;;;;;;5030127;28;20196;-84
2024/01/25 04:29:15;;;;;;;8.50;2.57;;;11.50;99.90;;;;;;5032241;28;20283;-84
2024/01/25 04:31:45;;;;;;;12.60;4.50;;;11.40;99.90;;;;;;5030722;28;20193;-84
2024/01/25 04:34:12;;;;;;;17.38;3.55;;;11.40;99.90;;;;;;5064663;28;20197;-84
2024/01/25 04:36:37;;;;;;;7.40;2.85;;;11.20;99.90;;;;;;5052592;28;21274;-84
2024/01/25 04:39:03;;;;;;;5.77;2.60;;;11.60;99.90;;;;;;5047402;28;20201;-84
2024/01/25 04:41:28;;;;;;;8.80;2.97;;;11.30;99.90;;;;;;5048684;28;20314;-84
2024/01/25 04:43:54;;;;;;;12.33;3.70;;;11.00;99.90;;;;;;5044012;28;20192;-85
2024/01/25 04:46:19;;;;;;;9.60;3.57;;;10.90;99.90;;;;;;5043401;28;20224;-84
2024/01/25 04:48:46;;;;;;;9.60;3.90;;;11.20;99.90;;;;;;5050489;28;20185;-85
2024/01/25 04:51:17;;;;;;;9.30;3.67;;;11.10;99.90;;;;;;5042922;28;20176;-84
2024/01/25 04:53:42;;;;;;;6.72;3.42;;;10.80;99.90;;;;;;5048159;28;20248;-84
2024/01/25 04:56:08;;;;;;;10.70;3.40;;;;;;;;;;5049566;28;20235;-84
2024/01/25 04:58:34;;;;;;;9.90;2.80;;;10.80;99.90;;;;;;5043505;28;20196;-84
2024/01/25 05:01:00;;;;;;;11.25;3.45;;;10.80;99.90;;;;;;5046322;28;20487;-84
2024/01/25 05:03:25;;;;;;;8.53;3.00;;;10.80;99.90;;;;;;5040741;28;20196;-84
2024/01/25 05:05:51;;;;;;;14.50;3.07;;;10.60;99.90;;;;;;5062611;28;20265;-85
2024/01/25 05:08:17;;;;;;;9.93;3.07;;;11.80;99.90;;;;;;5039941;28;20210;-84
2024/01/25 05:10:42;;;;;;;14.20;2.90;;;10.90;99.90;;;;;;5044921;28;20636;-85
2024/01/25 05:13:09;;;;;;;8.60;3.53;;;10.50;99.90;;;;;;5042712;28;20184;-85
2024/01/25 05:15:34;;;;;;;6.88;3.00;;;10.70;99.90;;;;;;5042549;28;20212;-85
2024/01/25 05:18:01;;;;;;;8.33;3.50;;;11.00;99.90;;;;;;5044560;28;20311;-84
2024/01/25 05:20:32;;;;;;;7.60;2.55;;;10.70;99.90;;;;;;5037880;28;20273;-85
2024/01/25 05:22:58;;;;;;;8.43;4.18;;;11.20;99.90;;;;;;5039257;28;20563;-84
2024/01/25 05:25:24;;;;;;;9.93;4.60;;;10.60;99.90;;;;;;5025430;28;20202;-83
2024/01/25 05:27:50;;;;;;;9.63;2.80;;;10.60;99.90;;;;;;5036557;28;20195;-86
2024/01/25 05:30:15;;;;;;;11.53;3.00;;;10.30;99.90;;;;;;5035301;28;20262;-86
2024/01/25 05:32:42;;;;;;;9.83;2.90;;;10.60;99.90;;;;;;5030495;28;20204;-87
2024/01/25 05:35:08;;;;;;;10.45;3.08;;;10.00;99.90;;;;;;5033677;28;20268;-87
2024/01/25 05:37:33;;;;;;;13.97;4.17;;;10.00;99.90;;;;;;5036318;28;20298;-87
2024/01/25 05:39:59;;;;;;;9.20;2.90;;;10.40;99.90;;;;;;5030667;28;20441;-86
2024/01/25 05:42:24;;;;;;;11.47;2.87;;;10.20;99.90;;;;;;5030875;28;20625;-87
2024/01/25 05:44:50;;;;;;;9.67;2.50;;;10.50;99.90;;;;;;5032073;28;20199;-87
2024/01/25 05:47:16;;;;;;;10.35;3.38;;;9.80;99.90;;;;;;5031934;28;20669;-87
2024/01/25 05:49:42;;;;;;;11.00;4.07;;;9.70;99.90;;;;;;5026568;28;20187;-87
2024/01/25 05:52:07;;;;;;;10.40;3.33;;;9.80;99.90;;;;;;5030579;28;20198;-87
2024/01/25 05:54:33;;;;;;;13.33;4.23;;;9.70;99.90;;;;;;5047992;28;20221;-87
2024/01/25 05:56:58;;;;;;;13.90;3.20;;;9.80;99.90;;;;;;5032711;28;20293;-86
2024/01/25 05:59:24;;;;;;;14.10;3.97;;;9.90;99.90;;;;;;5031977;28;20195;-87
2024/01/25 06:01:49;;;;;;;11.90;4.63;;;9.70;99.90;;;;;;5025975;28;20645;-87
2024/01/25 06:04:15;;;;;;;13.13;3.60;;;9.60;99.90;;;;;;5035867;28;20652;-87
2024/01/25 06:06:41;;;;;;;15.30;3.83;;;9.90;99.90;;;;;;5032708;28;20190;-88
2024/01/25 06:09:07;;;;;;;12.80;3.58;;;9.50;99.90;;;;;;5047305;28;20217;-87
2024/01/25 06:11:35;;;;;;;11.32;4.10;;;9.20;99.90;;;;;;5036893;28;20191;-88
2024/01/25 06:14:01;;;;;;;10.20;3.95;;;9.20;99.90;;;;;;5030622;28;20205;-88
2024/01/25 06:16:27;;;;;;;17.58;9.02;;;9.70;99.90;;;;;;5030981;28;20373;-88
2024/01/25 06:18:52;;;;;;;14.20;4.07;;;9.50;99.90;;;;;;5034155;28;20749;-88
2024/01/25 06:21:18;;;;;;;10.77;3.57;;;9.40;99.90;;;;;;5042713;28;20187;-88
2024/01/25 06:23:44;;;;;;;10.90;3.83;;;9.30;99.90;;;;;;5045373;28;20710;-87
2024/01/25 06:26:09;;;;;;;10.03;3.90;;;9.40;99.90;;;;;;5035044;28;20861;-88
2024/01/25 06:28:35;;;;;;;14.40;4.20;;;9.70;99.90;;;;;;5031065;28;20671;-88
2024/01/25 06:31:03;;;;;;;8.63;4.00;;;8.80;99.90;;;;;;5029477;28;20189;-87
2024/01/25 06:33:29;;;;;;;12.63;3.65;;;9.30;99.90;;;;;;5036419;28;20200;-88
2024/01/25 06:35:55;;;;;;;8.80;2.93;;;9.00;99.90;;;;;;5036797;28;20207;-88
2024/01/25 06:38:21;;;;;;;11.57;3.60;;;9.10;99.90;;;;;;5028964;28;20218;-87
2024/01/25 06:40:47;;;;;;;11.53;4.37;;;9.30;99.90;;;;;;5036127;28;20186;-87
2024/01/25 06:43:12;;;;;;;12.23;3.30;;;9.50;99.90;;;;;;5034679;28;20529;-87
2024/01/25 06:45:40;;;;;;;10.97;4.03;;;9.00;99.90;;;;;;5037270;28;20639;-86
2024/01/25 06:48:06;;;;;;;12.68;3.47;;;9.60;99.90;;;;;;5063884;28;20259;-87
2024/01/25 06:50:32;;;;;;;9.50;4.20;;;9.00;99.90;;;;;;5031130;28;20841;-87
2024/01/25 06:52:57;;;;;;;10.27;4.40;;;8.90;99.90;;;;;;5033203;28;20269;-86
2024/01/25 06:55:23;;;;;;;10.13;3.50;;;9.00;99.90;;;;;;5031764;28;20202;-87
2024/01/25 06:57:49;;;;;;;12.83;4.17;;;8.90;99.90;;;;;;5036273;28;20626;-87
2024/01/25 07:00:15;;;;;;;13.53;4.40;;;9.10;99.90;;;;;;5035684;28;20198;-86
2024/01/25 07:02:42;;;;;;;14.60;4.55;;;9.00;99.90;;;;;;5036276;28;20201;-87
2024/01/25 07:05:08;;;;;;;8.60;3.33;;;8.50;99.90;;;;;;5036365;28;20205;-87
2024/01/25 07:07:34;;;;;;;11.77;3.40;;;9.00;99.90;;;;;;5041079;28;20174;-88
2024/01/25 07:09:59;;;;;;;16.40;4.63;;;9.50;99.90;;;;;;5051772;28;20233;-87
2024/01/25 07:12:25;;;;;;;8.30;3.47;;;9.00;99.90;;;;;;5049258;28;20178;-88
2024/01/25 07:14:50;;;;;;;14.67;3.60;;;9.30;99.90;;;;;;5051536;28;20244;-89
2024/01/25 07:17:16;;;;;;;13.83;4.07;;;8.90;99.90;;;;;;5053152;28;20315;-88
2024/01/25 07:19:41;;;;;;;11.23;3.50;;;8.80;99.90;;;;;;5046070;28;20187;-88
2024/01/25 07:22:07;;;;;;;17.53;5.13;;;9.10;99.90;;;;;;5057964;28;20247;-89
2024/01/25 07:24:33;;;;;;;13.73;4.93;;;8.90;99.90;;;;;;5056085;28;20214;-89
2024/01/25 07:26:58;;;;;;;17.53;6.30;;;9.10;99.90;;;;;;5051035;28;20166;-88
2024/01/25 07:29:24;;;;;;;14.83;5.27;;;9.10;99.90;;;;;;5054513;28;20208;-88
2024/01/25 07:31:50;;;;;;;9.67;4.03;;;9.10;99.90;;;;;;5039891;28;20201;-87
2024/01/25 07:34:15;;;;;;;14.37;4.80;;;9.00;99.90;;;;;;5047111;28;20182;-88
2024/01/25 07:36:41;;;;;;;12.20;4.23;;;9.50;99.90;;;;;;5049180;28;20229;-87
2024/01/25 07:39:08;;;;;;;12.30;4.43;;;9.20;99.90;;;;;;5050013;28;20186;-88
2024/01/25 07:41:33;;;;;;;21.27;5.72;;;8.90;99.90;;;;;;5042314;28;20178;-89
2024/01/25 07:43:59;;;;;;;15.97;5.60;;;9.40;99.90;;;;;;5031252;28;20202;-89
2024/01/25 07:46:24;;;;;;;18.83;5.33;;;9.00;99.90;;;;;;5034215;28;20193;-88
2024/01/25 07:48:50;;;;;;;12.30;4.93;;;8.90;99.90;;;;;;5033239;28;20173;-89
2024/01/25 07:51:16;;;;;;;12.60;3.83;;;9.50;99.90;;;;;;5036847;28;20412;-90
2024/01/25 07:53:41;;;;;;;13.73;3.43;;;9.20;99.90;;;;;;5034299;28;20639;-90
2024/01/25 07:56:08;;;;;;;16.37;5.60;;;9.00;99.90;;;;;;5035341;28;20191;-89
2024/01/25 07:58:35;;;;;;;14.75;6.53;;;9.30;99.90;;;;;;5037676;28;20288;-89
2024/01/25 08:01:04;;;;;;;12.45;5.53;;;9.00;99.90;;;;;;5038871;28;20706;-86
2024/01/25 08:03:29;;;;;;;12.75;5.03;;;9.60;99.90;;;;;;5036754;28;20180;-88
2024/01/25 08:05:54;;;;;;;10.87;4.70;;;9.30;99.90;;;;;;5033517;28;20230;-89
2024/01/25 08:08:20;;;;;;;20.83;4.90;;;9.40;99.90;;;;;;5037433;28;20181;-86
2024/01/25 08:10:46;;;;;;;10.20;3.63;;;9.70;99.90;;;;;;5035917;28;20217;-89
2024/01/25 08:13:12;;;;;;;9.63;3.95;;;8.90;99.90;;;;;;5027714;28;20547;-89
2024/01/25 08:15:38;;;;;;;11.10;4.83;;;9.30;99.90;;;;;;5051660;28;20199;-89
2024/01/25 08:18:04;;;;;;;14.77;3.90;;;9.40;99.90;;;;;;5040170;28;20220;-89
2024/01/25 08:20:29;;;;;;;8.90;3.10;;;9.40;99.90;;;;;;5033609;28;20206;-86
2024/01/25 08:22:55;;;;;;;16.03;4.83;;;10.10;99.90;;;;;;5037999;28;20441;-87
2024/01/25 08:25:20;;;;;;;10.80;4.10;;;9.50;99.90;;;;;;5037177;28;20218;-87
2024/01/25 08:27:46;;;;;;;12.00;3.13;;;9.40;99.90;;;;;;5029016;28;20236;-88
2024/01/25 08:30:12;;;;;;;10.40;3.63;;;9.50;99.90;;;;;;5030770;28;20183;-87
2024/01/25 08:32:37;;;;;;;8.95;3.85;;;9.60;99.90;;;;;;5027334;28;20316;-91
2024/01/25 08:35:06;;;;;;;7.63;3.17;;;9.80;99.90;;;;;;5039642;28;20262;-92
2024/01/25 08:37:32;;;;;;;17.38;3.40;;;9.70;99.90;;;;;;5028444;28;20215;-88
2024/01/25 08:39:58;;;;;;;14.85;3.78;;;10.20;99.90;;;;;;5037474;28;20215;-88
2024/01/25 08:42:24;;;;;;;8.70;3.57;;;10.40;99.90;;;;;;5031969;28;20212;-88
2024/01/25 08:44:50;;;;;;;12.18;3.20;;;10.40;99.90;;;;;;5035491;28;20199;-90
2024/01/25 08:47:17;;;;;;;11.60;3.10;;;10.00;99.90;;;;;;5038668;28;20190;-89
2024/01/25 08:49:43;;;;;;;10.32;3.38;;;9.90;99.90;;;;;;5051362;28;20283;-88
2024/01/25 08:52:09;;;;;;;9.80;3.33;;;9.80;99.90;;;;;;5052149;28;20196;-87
2024/01/25 08:54:36;;;;;;;8.67;3.27;;;10.50;99.90;;;;;;5053217;28;20275;-88
2024/01/25 08:57:02;;;;;;;6.20;2.88;;;10.60;99.90;;;;;;5039290;28;20226;-88
2024/01/25 08:59:29;;;;;;;7.55;3.17;;;10.10;99.90;;;;;;5037031;28;20271;-88
2024/01/25 09:01:55;;;;;;;15.45;3.90;;;11.80;99.90;;;;;;5027864;28;20615;-88
2024/01/25 09:04:20;;;;;;;11.93;4.13;;;10.50;99.90;;;;;;5038656;28;20462;-87
2024/01/25 09:06:46;;;;;;;9.07;4.27;;;10.30;99.90;;;;;;5042163;28;20207;-86
2024/01/25 09:09:12;;;;;;;10.40;3.77;;;10.60;99.90;;;;;;5044038;28;20234;-90
2024/01/25 09:11:37;;;;;;;7.82;3.50;;;10.10;99.90;;;;;;5039962;28;20194;-87
2024/01/25 09:14:03;;;;;;;6.83;2.60;;;10.50;99.90;;;;;;5034210;28;20200;-87
2024/01/25 09:16:28;;;;;;;12.60;3.27;;;10.70;99.90;;;;;;5054598;28;20282;-87
2024/01/25 09:18:54;;;;;;;11.63;3.33;;;10.30;99.90;;;;;;5049675;28;20192;-87
2024/01/25 09:21:19;;;;;;;8.50;3.37;;;11.10;99.90;;;;;;5050228;28;20195;-87
2024/01/25 09:23:45;;;;;;;9.87;3.17;;;11.00;99.90;;;;;;5034963;28;20208;-87
2024/01/25 09:26:11;;;;;;;15.80;4.33;;;12.20;99.90;;;;;;5035139;28;20201;-89
2024/01/25 09:28:36;;;;;;;10.93;3.03;;;12.20;99.90;;;;;;5034421;28;20311;-91
2024/01/25 09:31:02;;;;;;;8.60;2.83;;;13.40;99.90;;;;;;5033829;28;20185;-88
2024/01/25 09:33:29;;;;;;;8.55;3.28;;;13.80;96.80;;;;;;5034804;28;20206;-87
2024/01/25 09:35:56;;;;;;;6.22;2.58;;;14.30;96.00;;;;;;5049210;28;20223;-88
2024/01/25 09:38:22;;;;;;;16.17;3.40;;;13.90;95.70;;;;;;5030349;28;20745;-89
2024/01/25 09:40:51;;;;;;;6.93;2.70;;;13.60;95.60;;;;;;5028847;28;20527;-90
2024/01/25 09:43:19;;;;;;;7.05;2.92;;;13.50;95.30;;;;;;5033774;28;20189;-89
2024/01/25 09:45:47;;;;;;;11.40;4.13;;;13.60;95.40;;;;;;5036766;28;20209;-86
2024/01/25 09:48:13;;;;;;;8.88;2.75;;;13.00;95.20;;;;;;5033399;28;20182;-86
2024/01/25 09:50:38;;;;;;;8.10;2.93;;;13.90;94.90;;;;;;5030854;28;20190;-85
2024/01/25 09:53:06;;;;;;;9.53;3.23;;;14.60;95.80;;;;;;5040356;28;20521;-83
2024/01/25 09:55:38;;;;;;;12.05;3.97;;;14.20;94.40;;;;;;5067355;28;20190;-83
2024/01/25 09:58:07;;;;;;;9.98;5.32;;;13.20;93.60;;;;;;5056106;28;20233;-87
2024/01/25 10:00:33;;;;;;;7.60;3.40;;;13.20;94.90;;;;;;5050476;28;20192;-87
2024/01/25 10:02:58;;;;;;;11.13;3.67;;;13.60;95.10;;;;;;5053565;28;20173;-86
2024/01/25 10:05:24;;;;;;;8.60;3.90;;;13.30;95.10;;;;;;5054524;28;20197;-87
2024/01/25 10:07:49;;;;;;;8.47;2.87;;;13.40;95.20;;;;;;5045883;28;20185;-87
2024/01/25 10:10:15;;;;;;;10.03;3.60;;;13.90;95.60;;;;;;5043910;28;20166;-86
2024/01/25 10:12:43;;;;;;;11.03;3.40;;;13.60;95.80;;;;;;5028407;28;20193;-88
2024/01/25 10:15:09;;;;;;;18.70;4.95;;;13.30;95.50;;;;;;5039204;28;20216;-87
2024/01/25 10:17:35;;;;;;;10.13;4.10;;;13.20;95.60;;;;;;5030825;28;20230;-87
2024/01/25 10:20:00;;;;;;;12.63;4.33;;;13.70;95.60;;;;;;5025097;28;20190;-87
2024/01/25 10:22:27;;;;;;;10.00;2.70;;;12.50;95.80;;;;;;5024612;28;21159;-86
2024/01/25 10:24:55;;;;;;;7.97;2.50;;;13.10;96.70;;;;;;5031724;28;20204;-87
2024/01/25 10:27:22;;;;;;;8.38;3.50;;;13.10;95.70;;;;;;5037476;28;20181;-87
2024/01/25 10:29:49;;;;;;;12.05;4.00;;;13.10;95.40;;;;;;5028157;28;20357;-87
2024/01/25 10:32:15;;;;;;;7.53;3.28;;;13.80;95.60;;;;;;5034919;28;20186;-86
2024/01/25 10:34:42;;;;;;;15.02;6.20;;;13.50;94.90;;;;;;5048716;28;20209;-85
2024/01/25 10:37:08;;;;;;;10.63;3.90;;;14.10;95.00;;;;;;5028627;28;20244;-86
2024/01/25 10:39:34;;;;;;;7.90;2.97;;;13.50;94.50;;;;;;5051942;28;20213;-85
2024/01/25 10:42:00;;;;;;;8.70;3.70;;;14.40;94.00;;;;;;5024321;28;20252;-85
2024/01/25 10:44:26;;;;;;;7.72;3.03;;;14.90;93.80;;;;;;5046087;28;20471;-86
2024/01/25 10:46:54;;;;;;;7.93;3.08;;;16.40;91.70;;;;;;5052924;28;20212;-86
2024/01/25 10:49:19;;;;;;;5.35;2.58;;;16.80;90.20;;;;;;5046596;28;20197;-86
2024/01/25 10:51:46;;;;;;;7.87;2.87;;;16.80;89.10;;;;;;5038834;28;20177;-87
2024/01/25 10:59:25;;;;;;;8.02;2.90;;;19.10;80.60;;;;;;5129027;22;20257;-86
2024/01/25 11:01:50;;;;;;;4.60;2.30;;;18.20;79.20;;;;;;5041547;28;20283;-86
2024/01/25 11:04:18;;;;;;;7.93;3.03;;;19.40;78.60;;;;;;5025892;28;20267;-86
2024/01/25 11:06:47;;;;;;;9.20;2.70;;;18.80;77.60;;;;;;5013188;28;20190;-86
2024/01/25 11:09:22;;;;;;;9.20;3.67;;;20.10;76.30;;;;;;5004220;28;20249;-86
2024/01/25 11:11:49;;;;;;;4.55;2.47;;;19.60;74.70;;;;;;5004611;28;20459;-86
2024/01/25 11:14:16;;;;;;;7.78;3.80;;;20.10;75.10;;;;;;5011776;28;20213;-89
2024/01/25 11:16:47;;;;;;;7.28;2.60;;;20.00;76.00;;;;;;5008367;28;20299;-86
2024/01/25 11:19:21;;;;;;;6.53;2.70;;;19.40;74.70;;;;;;5006143;28;20178;-88
2024/01/25 11:21:51;;;;;;;8.90;3.03;;;19.00;76.40;;;;;;5024093;28;20178;-88
2024/01/25 11:24:26;;;;;;;7.43;2.92;;;18.20;74.80;;;;;;5014830;28;20782;-88
2024/01/25 11:26:53;;;;;;;5.28;2.38;;;17.90;77.10;;;;;;4996930;28;20209;-87
2024/01/25 11:29:22;;;;;;;5.70;2.58;;;17.60;79.80;;;;;;4997191;28;20243;-87
2024/01/25 11:31:49;;;;;;;9.30;3.38;;;18.30;81.80;;;;;;4999377;28;20281;-87
2024/01/25 11:34:16;;;;;;;8.55;3.45;;;16.80;78.50;;;;;;5006848;28;20478;-87
2024/01/25 11:36:42;;;;;;;6.63;2.70;;;16.80;79.00;;;;;;4996505;28;20218;-87
2024/01/25 11:39:12;;;;;;;8.30;2.40;;;16.70;79.70;;;;;;5008459;28;20597;-86
2024/01/25 11:41:38;;;;;;;4.75;2.00;;;17.40;77.40;;;;;;5020502;28;20186;-87
2024/01/25 11:44:04;;;;;;;8.82;3.05;;;18.20;77.60;;;;;;5002155;28;20188;-86
2024/01/25 11:46:30;;;;;;;7.93;3.63;;;18.60;77.00;;;;;;5003094;28;20190;-88
2024/01/25 11:48:57;;;;;;;6.37;3.40;;;18.40;75.30;;;;;;5002200;28;20857;-89
2024/01/25 11:51:23;;;;;;;6.72;2.20;;;18.90;73.90;;;;;;5019478;28;20441;-89
2024/01/25 11:53:50;;;;;;;6.53;2.40;;;19.00;72.60;;;;;;5007103;28;20242;-89
2024/01/25 11:56:26;;;;;;;5.40;2.15;;;18.50;72.50;;;;;;4999239;28;20207;-85
2024/01/25 11:58:52;;;;;;;6.75;2.33;;;17.90;74.10;;;;;;5010526;28;20565;-87
2024/01/25 12:01:19;;;;;;;4.18;2.33;;;18.10;74.30;;;;;;5017693;28;20193;-88
2024/01/25 12:03:45;;;;;;;5.18;2.63;;;18.50;74.10;;;;;;5032126;28;20174;-88
2024/01/25 12:06:11;;;;;;;4.90;2.10;;;18.20;74.20;;;;;;5006867;28;20222;-87
2024/01/25 12:08:38;;;;;;;6.47;2.45;;;17.40;73.90;;;;;;4995812;28;20437;-87
2024/01/25 12:11:08;;;;;;;12.82;4.82;;;18.50;77.40;;;;;;4982488;28;20206;-87
2024/01/25 12:13:43;;;;;;;4.97;2.05;;;16.80;78.20;;;;;;4985769;28;20400;-87
2024/01/25 12:16:10;;;;;;;4.50;2.17;;;16.60;77.40;;;;;;5004225;28;20210;-88
2024/01/25 12:18:37;;;;;;;6.18;2.67;;;16.90;78.70;;;;;;4993722;28;20218;-85
2024/01/25 12:21:05;;;;;;;5.70;2.70;;;16.90;78.80;;;;;;5000319;28;20273;-87
2024/01/25 12:23:34;;;;;;;4.20;2.08;;;16.40;77.70;;;;;;4986968;28;20222;-87
2024/01/25 12:26:09;;;;;;;5.70;2.03;;;16.00;78.10;;;;;;5001085;28;20199;-85
2024/01/25 12:28:35;;;;;;;4.25;2.10;;;16.30;80.20;;;;;;4993384;28;20730;-88
2024/01/25 12:31:03;;;;;;;7.70;2.80;;;16.30;79.70;;;;;;4996624;28;20193;-88
2024/01/25 12:33:29;;;;;;;6.55;2.67;;;16.10;82.60;;;;;;5000010;28;20441;-88
2024/01/25 12:35:54;;;;;;;10.40;3.50;;;16.30;84.70;;;;;;5006419;28;20226;-88
2024/01/25 12:38:21;;;;;;;9.80;3.30;;;15.80;85.30;;;;;;5022831;28;20202;-88
2024/01/25 12:40:49;;;;;;;8.32;3.20;;;15.70;86.10;;;;;;5022243;28;20178;-87
2024/01/25 12:43:15;;;;;;;8.30;3.03;;;16.20;86.30;;;;;;5013958;28;20171;-88
2024/01/25 12:45:42;;;;;;;8.07;3.38;;;15.70;85.80;;;;;;5020218;28;20222;-88